ADDS METAR Data INFO
IDs: Format: Raw Decoded Include TAF

Data at: 0919 UTC 13 Dec 2017

KD55 130915Z AUTO 35020G26KT 10SM OVC009 M00/M00 A2957 RMK AO2
KD55 130855Z AUTO 35024KT 10SM OVC011 M00/M00 A2955 RMK AO2
KD55 130835Z AUTO 35020G30KT 10SM OVC012 00/00 A2953 RMK AO2
KD55 130815Z AUTO 35019G27KT 10SM OVC013 01/01 A2951 RMK AO2
KD55 130755Z AUTO 35022G28KT 10SM BKN013 OVC017 01/01 A2951 RMK AO2
KD55 130735Z AUTO 35020G29KT 10SM BKN016 01/01 A2950 RMK AO2
KD55 130715Z AUTO 34022G27KT 10SM FEW017 01/01 A2948 RMK AO2
KD55 130655Z AUTO 34019G26KT 10SM FEW110 02/01 A2947 RMK AO2
KD55 130635Z AUTO 34016G23KT 10SM SCT043 SCT100 02/01 A2947 RMK AO2
KD55 130615Z AUTO 33013KT 9SM FEW024 OVC042 01/01 A2946 RMK AO2
KD55 130555Z AUTO 33015KT 6SM -RA FEW021 SCT027 OVC039 02/02 A2946 RMK AO2
KD55 130535Z AUTO 33017KT 4SM -RA FEW020 BKN031 OVC042 02/02 A2945 RMK AO2
KD55 130515Z AUTO 33013KT 7SM -DZ FEW020 SCT032 BKN043 02/02 A2943 RMK AO2
KD55 130455Z AUTO 32014KT 10SM FEW040 FEW048 SCT055 03/01 A2943 RMK AO2
KD55 130435Z AUTO 31013KT 10SM FEW044 SCT049 BKN070 03/01 A2943 RMK AO2
KD55 130415Z AUTO 31011KT 10SM FEW065 OVC090 03/00 A2942 RMK AO2
KD55 130355Z AUTO 30012KT 10SM OVC095 03/M00 A2943 RMK AO2
KD55 130335Z AUTO 29008KT 10SM OVC095 02/00 A2943 RMK AO2
KD55 130315Z AUTO 27010KT 10SM BKN100 02/M00 A2943 RMK AO2
KD55 130255Z AUTO 25008KT 10SM FEW110 01/M00 A2944 RMK AO2
KD55 130235Z AUTO 26008KT 10SM BKN110 02/M00 A2945 RMK AO2
KD55 130215Z AUTO 26010KT 10SM SCT110 02/M00 A2947 RMK AO2
KD55 130155Z AUTO 26011KT 10SM CLR 02/M00 A2948 RMK AO2
KD55 130135Z AUTO 25012KT 10SM CLR 01/M00 A2949 RMK AO2
KD55 130115Z AUTO 24012KT 10SM CLR 02/M00 A2950 RMK AO2
KD55 130055Z AUTO 24010KT 10SM CLR 02/M00 A2951 RMK AO2
KD55 130035Z AUTO 24012KT 10SM CLR 01/M00 A2953 RMK AO2
KD55 130015Z AUTO 24012KT 10SM CLR 01/M00 A2953 RMK AO2
KD55 122355Z AUTO 24010KT 10SM CLR 01/M00 A2955 RMK AO2
KD55 122335Z AUTO 24007KT 10SM CLR 01/M00 A2957 RMK AO2
KD55 122315Z AUTO 23009KT 10SM CLR 01/00 A2958 RMK AO2
KD55 122255Z AUTO 24011KT 10SM CLR 02/00 A2959 RMK AO2
KD55 122235Z AUTO 24012KT 10SM CLR 02/00 A2960 RMK AO2
KD55 122215Z AUTO 24011KT 10SM CLR 02/00 A2961 RMK AO2
KD55 122155Z AUTO 24012KT 10SM CLR 03/00 A2963 RMK AO2
KD55 122135Z AUTO 24013KT 10SM CLR 04/01 A2964 RMK AO2
KD55 122115Z AUTO 24015KT 10SM CLR 04/01 A2966 RMK AO2
KD55 122055Z AUTO 23014KT 10SM CLR 04/01 A2966 RMK AO2
KD55 122035Z AUTO 23012KT 10SM CLR 04/01 A2967 RMK AO2
KD55 122015Z AUTO 23011KT 10SM CLR 04/01 A2969 RMK AO2
KD55 121955Z AUTO 23011KT 10SM CLR 03/00 A2971 RMK AO2
KD55 121935Z AUTO 22010KT 10SM CLR 03/00 A2973 RMK AO2
KD55 121915Z AUTO 23010KT 10SM FEW050 03/00 A2975 RMK AO2
KD55 121855Z AUTO 24011KT 10SM SCT050 02/M00 A2978 RMK AO2
KD55 121835Z AUTO 24014KT 10SM FEW080 01/M00 A2979 RMK AO2
KD55 121815Z AUTO 24013KT 10SM BKN080 00/M00 A2981 RMK AO2
KD55 121755Z AUTO 24013KT 10SM OVC080 00/M01 A2983 RMK AO2
KD55 121735Z AUTO 24013KT 10SM SCT045 BKN055 OVC090 M00/M01 A2983 RMK AO2
KD55 121715Z AUTO 25012KT 10SM OVC047 M00/M01 A2987 RMK AO2
KD55 121655Z AUTO 24009KT 10SM OVC050 M01/M01 A2988 RMK AO2
KD55 121635Z AUTO 23008KT 10SM BKN055 OVC100 M01/M01 A2988 RMK AO2
KD55 121615Z AUTO 23005KT 10SM BKN060 OVC100 M02/M02 A2990 RMK AO2
KD55 121555Z AUTO 24006KT 10SM OVC060 M02/M02 A2991 RMK AO2
KD55 121535Z AUTO 24005KT 10SM BKN060 M02/M02 A2992 RMK AO2
KD55 121515Z AUTO 24006KT 10SM FEW060 SCT110 M03/M03 A2993 RMK AO2
KD55 121455Z AUTO 24007KT 10SM FEW090 SCT110 M03/M03 A2993 RMK AO2
KD55 121435Z AUTO 24009KT 10SM BKN090 BKN110 M03/M03 A2992 RMK AO2
KD55 121415Z AUTO 24009KT 10SM OVC090 M03/M03 A2994 RMK AO2
KD55 121355Z AUTO 24009KT 10SM BKN095 BKN120 M03/M03 A2994 RMK AO2
KD55 121335Z AUTO 25010KT 10SM FEW095 BKN120 M03/M03 A2997 RMK AO2
KD55 121315Z AUTO 25010KT 10SM SCT110 M03/M03 A2997 RMK AO2
KD55 121255Z AUTO 24011KT 10SM FEW006 SCT100 M03/M03 A2998 RMK AO2
KD55 121235Z AUTO 22007KT 10SM FEW007 M04/M04 A2998 RMK AO2
KD55 121215Z AUTO 22007KT 10SM FEW008 M05/M04 A3000 RMK AO2
KD55 121155Z AUTO 22006KT 10SM SCT023 M04/M04 A3001 RMK AO2
KD55 121135Z AUTO 23007KT 10SM BKN025 OVC030 M04/M04 A3002 RMK AO2
KD55 121115Z AUTO 22007KT 10SM FEW021 OVC028 M04/M04 A3004 RMK AO2
KD55 121055Z AUTO 22008KT 10SM OVC020 M05/M04 A3005 RMK AO2
KD55 121035Z AUTO 22008KT 10SM BKN013 OVC020 M05/M05 A3006 RMK AO2
KD55 121015Z AUTO 23008KT 10SM OVC012 M05/M05 A3008 RMK AO2
KD55 120955Z AUTO 23008KT 10SM BKN012 BKN016 OVC029 M05/M05 A3009 RMK AO2
KD55 120935Z AUTO 22010KT 7SM OVC015 M06/M06 A3010 RMK AO2
KD55 120915Z AUTO 23010KT 9SM OVC013 M06/M06 A3012 RMK AO2
KD55 120855Z AUTO 23010KT 10SM M06/M06 A3013 RMK AO2
KD55 120835Z AUTO 23010KT 10SM BKN012 BKN021 OVC026 M07/M06 A3014 RMK AO2
KD55 120815Z AUTO 22009KT 10SM OVC013 M07/M07 A3014 RMK AO2
KD55 120755Z AUTO 22007KT 10SM OVC014 M07/M07 A3015 RMK AO2
KD55 120735Z AUTO 23007KT 10SM OVC013 M07/M07 A3017 RMK AO2
KD55 120715Z AUTO 24007KT 10SM BKN016 BKN023 OVC048 M08/M08 A3018 RMK AO2
KD55 120655Z AUTO 23006KT 10SM FEW010 SCT033 OVC048 M09/M09 A3019 RMK AO2
KD55 120635Z AUTO 24004KT 10SM OVC011 M09/M09 A3020 RMK AO2
KD55 120615Z AUTO 23006KT 10SM BKN012 OVC060 M10/M10 A3020 RMK AO2
KD55 120555Z AUTO 22006KT 10SM FEW013 BKN060 M12/M12 A3021 RMK AO2
KD55 120535Z AUTO 22007KT 10SM BKN060 M12/M12 A3022 RMK AO2
KD55 120515Z AUTO 22008KT 10SM BKN060 M12/M12 A3022 RMK AO2
KD55 120455Z AUTO 22008KT 10SM FEW014 SCT060 M14/M14 A3022 RMK AO2
KD55 120435Z AUTO 22007KT 10SM SCT015 M14/M14 A3024 RMK AO2
KD55 120415Z AUTO 22005KT 10SM OVC016 M13/M13 A3024 RMK AO2
KD55 120355Z AUTO 23006KT 10SM BKN016 M13/M13 A3025 RMK AO2
KD55 120335Z AUTO 22006KT 10SM SCT017 M14/M14 A3026 RMK AO2
KD55 120315Z AUTO 00000KT 10SM OVC017 M13/M13 A3026 RMK AO2
KD55 120255Z AUTO 22004KT 10SM BKN017 M15/M15 A3027 RMK AO2
KD55 120235Z AUTO 24005KT 10SM CLR M16/M16 A3027 RMK AO2
KD55 120215Z AUTO 23006KT 10SM CLR M16/M16 A3028 RMK AO2
KD55 120155Z AUTO 25005KT 10SM CLR M16/M17 A3028 RMK AO2
KD55 120135Z AUTO 22004KT 10SM CLR M16/M16 A3028 RMK AO2
KD55 120115Z AUTO 00000KT 10SM CLR M16/M16 A3028 RMK AO2
KD55 120055Z AUTO 31004KT 10SM CLR M15/M15 A3029 RMK AO2
KD55 120035Z AUTO 34003KT 10SM CLR M15/M15 A3029 RMK AO2
KD55 120015Z AUTO 34004KT 10SM CLR M14/M15 A3029 RMK AO2
KD55 112355Z AUTO 34004KT 10SM CLR M14/M14 A3029 RMK AO2
KD55 112335Z AUTO 33004KT 10SM CLR M13/M14 A3029 RMK AO2
KD55 112315Z AUTO 34004KT 10SM CLR M13/M13 A3028 RMK AO2
KD55 112255Z AUTO 34005KT 10SM CLR M12/M13 A3028 RMK AO2
KD55 112235Z AUTO 33007KT 10SM CLR M11/M12 A3028 RMK AO2
KD55 112215Z AUTO 33008KT 10SM CLR M10/M12 A3028 RMK AO2
KD55 112155Z AUTO 33008KT 10SM CLR M09/M12 A3027 RMK AO2
KD55 112135Z AUTO 33012KT 10SM FEW012 M09/M11 A3027 RMK AO2